Madison, Pennsylvania
Current Conditions -  °F | °C
As of 4:50 PM on Tuesday 25 Nov 2014 (Local Time) from KLBE Reporting Station
Clear Clear  
Wind Chill: 41°   Ceiling: Unl
Heat Index: 46°   Visibility: 15mi
Dew Point: 27°   Wind: 13mph
Humidity: 46%   Direction: 270°W
Pressure: 30.06"   Gusts: NA
Location:  40.25°N, 79.68°W
Report Text: KLBE 252150Z 27011KT 15SM SKC 08/M03 A3006
Loading
Personal Weather Stations






























Interactive Weather Map New forecast layout! Learn more

10-Day Weather Forecast

Advertisements
Track Severe Weather on mobile